createdAt,value
2022-10-09T00:00:25.109Z,4.70
2022-10-09T00:02:52.127Z,4.70
2022-10-09T00:05:19.110Z,4.70
2022-10-09T00:07:45.843Z,4.70
2022-10-09T00:10:12.442Z,4.60
2022-10-09T00:12:39.120Z,4.60
2022-10-09T00:15:06.190Z,4.60
2022-10-09T00:17:32.902Z,4.60
2022-10-09T00:19:59.575Z,4.50
2022-10-09T00:22:26.277Z,4.50
2022-10-09T00:24:52.962Z,4.50
2022-10-09T00:27:24.708Z,4.40
2022-10-09T00:29:51.460Z,4.50
2022-10-09T00:32:18.198Z,4.40
2022-10-09T00:34:45.233Z,4.40
2022-10-09T00:37:11.945Z,4.40
2022-10-09T00:39:38.594Z,4.40
2022-10-09T00:42:05.488Z,4.40
2022-10-09T00:44:47.430Z,4.50
2022-10-09T00:47:23.496Z,4.40
2022-10-09T00:49:52.985Z,4.40
2022-10-09T00:52:21.481Z,4.40
2022-10-09T00:54:48.160Z,4.40
2022-10-09T00:57:14.937Z,4.40
2022-10-09T00:59:41.652Z,4.30
2022-10-09T01:02:08.398Z,4.30
2022-10-09T01:04:35.195Z,4.20
2022-10-09T01:07:18.474Z,4.20
2022-10-09T01:10:05.646Z,4.10
2022-10-09T01:12:39.816Z,4.00
2022-10-09T01:15:13.818Z,4.00
2022-10-09T01:18:06.006Z,4.00
2022-10-09T01:20:42.727Z,3.90
2022-10-09T01:23:38.322Z,3.80
2022-10-09T01:26:17.016Z,3.80
2022-10-09T01:28:47.684Z,3.80
2022-10-09T01:31:16.414Z,3.80
2022-10-09T01:33:44.198Z,3.80
2022-10-09T01:36:11.529Z,3.80
2022-10-09T01:38:40.195Z,3.80
2022-10-09T01:41:08.805Z,3.80
2022-10-09T01:43:35.841Z,3.80
2022-10-09T01:46:25.095Z,3.80
2022-10-09T01:49:18.097Z,3.70
2022-10-09T01:52:03.090Z,3.70
2022-10-09T01:54:39.595Z,3.70
2022-10-09T01:57:08.255Z,3.70
2022-10-09T01:59:38.464Z,3.70
2022-10-09T02:02:07.233Z,3.60
2022-10-09T02:04:36.873Z,3.60
2022-10-09T02:07:04.617Z,3.50
2022-10-09T02:09:32.715Z,3.50
2022-10-09T02:12:04.394Z,3.50
2022-10-09T02:14:31.087Z,3.50
2022-10-09T02:17:05.683Z,3.50
2022-10-09T02:19:43.909Z,3.50
2022-10-09T02:22:18.926Z,3.40
2022-10-09T02:24:46.404Z,3.40
2022-10-09T02:27:14.514Z,3.30
2022-10-09T02:29:43.991Z,3.30
2022-10-09T02:32:11.814Z,3.30
2022-10-09T02:34:38.711Z,3.30
2022-10-09T02:37:06.159Z,3.30
2022-10-09T02:39:32.961Z,3.30
2022-10-09T02:41:59.664Z,3.30
2022-10-09T02:44:26.548Z,3.30
2022-10-09T02:46:53.329Z,3.30
2022-10-09T02:49:19.988Z,3.30
2022-10-09T02:51:46.655Z,3.30
2022-10-09T02:54:13.624Z,3.20
2022-10-09T02:56:40.288Z,3.20
2022-10-09T02:59:07.103Z,3.20
2022-10-09T03:01:33.880Z,3.10
2022-10-09T03:04:00.659Z,3.20
2022-10-09T03:06:28.701Z,3.10
2022-10-09T03:08:56.536Z,3.10
2022-10-09T03:11:25.220Z,3.10
2022-10-09T03:13:51.945Z,3.10
2022-10-09T03:16:23.658Z,3.10
2022-10-09T03:18:51.532Z,3.10
2022-10-09T03:21:23.441Z,3.00
2022-10-09T03:23:50.576Z,3.00
2022-10-09T03:26:20.580Z,3.00
2022-10-09T03:28:49.341Z,2.90
2022-10-09T03:31:33.402Z,2.90
2022-10-09T03:34:04.447Z,2.80
2022-10-09T03:36:31.093Z,2.90
2022-10-09T03:38:57.708Z,2.90
2022-10-09T03:41:24.318Z,2.90
2022-10-09T03:43:52.171Z,2.90
2022-10-09T03:46:18.824Z,2.90
2022-10-09T03:48:45.565Z,2.90
2022-10-09T03:51:12.228Z,2.90
2022-10-09T03:53:38.879Z,2.80
2022-10-09T03:56:05.758Z,2.80
2022-10-09T03:58:32.618Z,2.80
2022-10-09T04:00:59.362Z,2.80
2022-10-09T04:03:27.456Z,2.80
2022-10-09T04:05:54.187Z,2.80
2022-10-09T04:08:20.930Z,2.70
2022-10-09T04:10:47.630Z,2.70
2022-10-09T04:13:14.322Z,2.70
2022-10-09T04:15:49.177Z,2.60
2022-10-09T04:18:15.789Z,2.60
2022-10-09T04:20:51.847Z,2.60
2022-10-09T04:23:23.379Z,2.60
2022-10-09T04:25:54.190Z,2.60
2022-10-09T04:28:21.348Z,2.50
2022-10-09T04:30:48.033Z,2.50
2022-10-09T04:33:14.737Z,2.50
2022-10-09T04:35:46.051Z,2.50
2022-10-09T04:38:12.703Z,2.50
2022-10-09T04:40:39.379Z,2.40
2022-10-09T04:43:06.185Z,2.40
2022-10-09T04:45:32.887Z,2.40
2022-10-09T04:47:59.687Z,2.40
2022-10-09T04:50:26.335Z,2.30
2022-10-09T04:52:52.976Z,2.30
2022-10-09T04:55:19.602Z,2.30
2022-10-09T04:57:46.222Z,2.30
2022-10-09T05:00:13.599Z,2.30
2022-10-09T05:02:40.245Z,2.30
2022-10-09T05:05:07.281Z,2.20
2022-10-09T05:07:33.991Z,2.20
2022-10-09T05:10:00.604Z,2.30
2022-10-09T05:12:27.366Z,2.30
2022-10-09T05:14:54.073Z,2.30
2022-10-09T05:17:23.203Z,2.40
2022-10-09T05:19:50.244Z,2.40
2022-10-09T05:22:16.979Z,2.50
2022-10-09T05:24:43.614Z,2.50
2022-10-09T05:27:10.310Z,2.50
2022-10-09T05:29:36.939Z,2.60
2022-10-09T05:32:03.766Z,2.60
2022-10-09T05:34:30.549Z,2.70
2022-10-09T05:36:57.200Z,2.70
2022-10-09T05:39:23.865Z,2.80
2022-10-09T05:41:50.518Z,2.80
2022-10-09T05:44:17.182Z,2.80
2022-10-09T05:46:43.820Z,2.90
2022-10-09T05:49:12.076Z,2.90
2022-10-09T05:51:39.937Z,3.00
2022-10-09T05:54:06.712Z,3.00
2022-10-09T05:56:38.607Z,3.10
2022-10-09T05:59:10.711Z,3.10
2022-10-09T06:01:39.917Z,3.20
2022-10-09T06:04:09.931Z,3.30
2022-10-09T06:06:38.766Z,3.30
2022-10-09T06:09:06.882Z,3.40
2022-10-09T06:11:35.570Z,3.40
2022-10-09T06:14:03.687Z,3.40
2022-10-09T06:16:33.082Z,3.50
2022-10-09T06:19:00.346Z,3.50
2022-10-09T06:21:27.726Z,3.50
2022-10-09T06:23:56.725Z,3.50
2022-10-09T06:26:24.860Z,3.60
2022-10-09T06:28:51.713Z,3.60
2022-10-09T06:31:21.493Z,3.60
2022-10-09T06:33:50.215Z,3.60
2022-10-09T06:36:23.694Z,3.70
2022-10-09T06:38:51.084Z,3.60
2022-10-09T06:41:20.591Z,3.70
2022-10-09T06:43:52.910Z,3.70
2022-10-09T06:46:20.917Z,3.70
2022-10-09T06:48:48.016Z,3.70
2022-10-09T06:51:17.393Z,3.60
2022-10-09T06:53:47.312Z,3.60
2022-10-09T06:56:14.816Z,3.70
2022-10-09T06:58:42.164Z,3.70
2022-10-09T07:01:16.650Z,3.70
2022-10-09T07:03:46.793Z,3.70
2022-10-09T07:06:15.756Z,3.70
2022-10-09T07:08:44.511Z,3.70
2022-10-09T07:11:17.140Z,3.80
2022-10-09T07:13:44.480Z,3.80
2022-10-09T07:16:11.811Z,3.90
2022-10-09T07:18:39.393Z,3.90
2022-10-09T07:21:08.118Z,4.00
2022-10-09T07:23:35.996Z,4.10
2022-10-09T07:26:08.443Z,4.20
2022-10-09T07:28:35.203Z,4.20
2022-10-09T07:31:05.819Z,4.30
2022-10-09T07:33:32.991Z,4.30
2022-10-09T07:36:01.370Z,4.30
2022-10-09T07:38:29.079Z,4.30
2022-10-09T07:41:00.445Z,4.30
2022-10-09T07:43:27.144Z,4.40
2022-10-09T07:45:53.881Z,4.50
2022-10-09T07:48:20.563Z,4.60
2022-10-09T07:50:47.227Z,4.70
2022-10-09T07:53:13.907Z,4.70
2022-10-09T07:55:46.660Z,4.80
2022-10-09T07:58:13.935Z,4.80
2022-10-09T08:00:40.583Z,4.60
2022-10-09T08:03:07.709Z,4.70
2022-10-09T08:05:34.409Z,4.70
2022-10-09T08:08:01.128Z,4.80
2022-10-09T08:10:32.022Z,4.80
2022-10-09T08:12:59.060Z,4.90
2022-10-09T08:15:26.208Z,4.90
2022-10-09T08:17:53.679Z,5.00
2022-10-09T08:20:20.887Z,5.10
2022-10-09T08:22:48.014Z,5.20
2022-10-09T08:25:14.968Z,5.30
2022-10-09T08:27:41.659Z,5.30
2022-10-09T08:30:08.934Z,5.50
2022-10-09T08:32:35.585Z,5.60
2022-10-09T08:35:02.259Z,5.70
2022-10-09T08:37:28.923Z,5.80
2022-10-09T08:39:55.749Z,5.90
2022-10-09T08:42:49.909Z,6.10
2022-10-09T08:45:19.290Z,6.30
2022-10-09T08:47:59.767Z,6.40
2022-10-09T08:50:30.214Z,6.60
2022-10-09T08:53:13.324Z,6.80
2022-10-09T08:55:56.070Z,7.10
2022-10-09T08:58:29.174Z,7.50
2022-10-09T09:01:10.687Z,7.70
2022-10-09T09:03:49.515Z,8.10
2022-10-09T09:06:42.342Z,8.40
2022-10-09T09:09:30.780Z,8.80
2022-10-09T09:12:19.725Z,9.20
2022-10-09T09:15:13.122Z,9.50
2022-10-09T09:18:01.547Z,9.60
2022-10-09T09:20:47.764Z,9.90
2022-10-09T09:23:16.386Z,10.20
2022-10-09T09:25:45.858Z,10.50
2022-10-09T09:28:24.448Z,10.70
2022-10-09T09:30:57.840Z,11.00
2022-10-09T09:33:44.661Z,11.10
2022-10-09T09:36:26.585Z,11.10
2022-10-09T09:39:26.019Z,11.10
2022-10-09T09:41:41.883Z,11.30
2022-10-09T09:44:11.918Z,11.60
2022-10-09T09:46:39.803Z,11.70
2022-10-09T09:49:21.091Z,11.90
2022-10-09T09:51:49.720Z,12.10
2022-10-09T09:54:26.419Z,12.20
2022-10-09T09:57:15.879Z,12.40
2022-10-09T09:59:44.120Z,12.60
2022-10-09T10:02:20.923Z,13.00
2022-10-09T10:04:59.297Z,13.30
2022-10-09T10:07:33.501Z,13.50
2022-10-09T10:10:26.748Z,13.70
2022-10-09T10:12:53.792Z,13.90
2022-10-09T10:15:32.155Z,14.00
2022-10-09T10:18:14.446Z,14.00
2022-10-09T10:20:56.303Z,14.20
2022-10-09T10:23:35.051Z,14.30
2022-10-09T10:26:12.712Z,14.40
2022-10-09T10:28:51.174Z,14.70
2022-10-09T10:31:43.277Z,14.80
2022-10-09T10:34:22.977Z,14.70
2022-10-09T10:37:00.998Z,14.80
2022-10-09T10:39:41.792Z,14.90
2022-10-09T10:42:14.832Z,15.00
2022-10-09T10:44:47.754Z,15.20
2022-10-09T10:47:23.891Z,15.30
2022-10-09T10:49:50.950Z,15.50
2022-10-09T10:52:36.140Z,15.50
2022-10-09T10:55:29.235Z,15.60
2022-10-09T11:01:08.326Z,15.80
2022-10-09T11:03:53.251Z,15.70
2022-10-09T11:06:32.174Z,15.60
2022-10-09T11:09:10.514Z,15.60
2022-10-09T11:11:48.521Z,15.60
2022-10-09T11:14:23.788Z,15.50
2022-10-09T11:16:59.545Z,15.60
2022-10-09T11:20:03.296Z,15.70
2022-10-09T11:22:36.646Z,15.70
2022-10-09T11:25:42.580Z,15.70
2022-10-09T11:28:18.543Z,15.80
2022-10-09T11:30:58.180Z,15.80
2022-10-09T11:33:48.060Z,15.80
2022-10-09T11:36:26.023Z,15.90
2022-10-09T11:38:59.193Z,15.90
2022-10-09T11:41:27.494Z,15.90
2022-10-09T11:44:12.731Z,16.00
2022-10-09T11:47:01.732Z,15.90
2022-10-09T11:49:57.694Z,15.90
2022-10-09T11:52:46.652Z,16.00
2022-10-09T11:55:17.212Z,16.00
2022-10-09T11:57:43.982Z,15.90
2022-10-09T12:00:11.173Z,16.00
2022-10-09T12:02:38.704Z,16.00
2022-10-09T12:05:29.617Z,16.10
2022-10-09T12:08:19.281Z,16.10
2022-10-09T12:11:00.369Z,16.30
2022-10-09T12:13:39.183Z,16.40
2022-10-09T12:16:08.053Z,16.50
2022-10-09T12:18:38.649Z,16.50
2022-10-09T12:21:09.236Z,16.50
2022-10-09T12:23:39.469Z,16.50
2022-10-09T12:26:10.626Z,16.50
2022-10-09T12:28:46.791Z,16.60
2022-10-09T12:31:21.265Z,16.70
2022-10-09T12:33:56.801Z,16.70
2022-10-09T12:36:29.261Z,16.60
2022-10-09T12:38:56.036Z,16.40
2022-10-09T12:41:32.318Z,16.50
2022-10-09T12:44:00.047Z,16.50
2022-10-09T12:46:33.372Z,16.50
2022-10-09T12:49:03.673Z,16.60
2022-10-09T12:51:31.947Z,16.60
2022-10-09T12:53:58.935Z,16.60
2022-10-09T12:56:33.234Z,16.70
2022-10-09T12:59:01.238Z,16.70
2022-10-09T13:01:28.553Z,16.70
2022-10-09T13:03:58.686Z,16.80
2022-10-09T13:06:32.678Z,16.80
2022-10-09T13:09:06.224Z,16.90
2022-10-09T13:11:43.287Z,17.00
2022-10-09T13:14:28.465Z,17.10
2022-10-09T13:16:55.407Z,17.10
2022-10-09T13:19:31.285Z,17.10
2022-10-09T13:22:02.028Z,17.00
2022-10-09T13:24:29.543Z,17.10
2022-10-09T13:26:56.267Z,17.00
2022-10-09T13:29:23.101Z,17.10
2022-10-09T13:31:49.843Z,17.20
2022-10-09T13:34:16.634Z,17.10
2022-10-09T13:36:43.287Z,17.20
2022-10-09T13:39:14.476Z,17.20
2022-10-09T13:41:43.169Z,17.00
2022-10-09T13:44:09.882Z,17.00
2022-10-09T13:46:36.575Z,17.00
2022-10-09T13:49:03.537Z,17.00
2022-10-09T13:51:31.906Z,17.00
2022-10-09T13:53:58.649Z,17.00
2022-10-09T13:56:26.070Z,17.10
2022-10-09T13:58:52.768Z,17.00
2022-10-09T14:01:19.588Z,17.10
2022-10-09T14:03:46.483Z,17.20
2022-10-09T14:06:13.176Z,17.10
2022-10-09T14:08:39.900Z,17.00
2022-10-09T14:11:06.658Z,17.00
2022-10-09T14:13:33.686Z,16.90
2022-10-09T14:16:05.205Z,16.80
2022-10-09T14:18:32.003Z,16.70
2022-10-09T14:20:58.680Z,16.70
2022-10-09T14:23:25.646Z,16.80
2022-10-09T14:25:52.297Z,16.70
2022-10-09T14:28:18.990Z,16.70
2022-10-09T14:30:45.686Z,16.70
2022-10-09T14:33:12.799Z,16.80
2022-10-09T14:35:39.740Z,16.70
2022-10-09T14:38:06.426Z,16.70
2022-10-09T14:40:33.120Z,16.70
2022-10-09T14:43:00.321Z,16.60
2022-10-09T14:45:28.926Z,16.60
2022-10-09T14:47:55.635Z,16.60
2022-10-09T14:50:22.293Z,16.60
2022-10-09T14:52:49.174Z,16.60
2022-10-09T14:55:16.094Z,16.60
2022-10-09T14:57:43.775Z,16.60
2022-10-09T15:00:11.521Z,16.50
2022-10-09T15:02:38.311Z,16.40
2022-10-09T15:05:05.616Z,16.30
2022-10-09T15:07:33.680Z,16.20
2022-10-09T15:10:00.344Z,16.20
2022-10-09T15:12:26.982Z,16.10
2022-10-09T15:14:53.660Z,16.10
2022-10-09T15:17:20.247Z,16.00
2022-10-09T15:19:46.910Z,15.90
2022-10-09T15:22:13.673Z,15.90
2022-10-09T15:24:40.287Z,15.80
2022-10-09T15:27:07.036Z,15.70
2022-10-09T15:29:33.682Z,15.70
2022-10-09T15:32:02.033Z,15.60
2022-10-09T15:34:29.228Z,15.50
2022-10-09T15:36:55.884Z,15.50
2022-10-09T15:39:23.557Z,15.40
2022-10-09T15:41:50.221Z,15.40
2022-10-09T15:44:20.068Z,15.40
2022-10-09T15:46:48.191Z,15.30
2022-10-09T15:49:15.078Z,15.30
2022-10-09T15:51:41.708Z,15.20
2022-10-09T15:54:08.511Z,15.20
2022-10-09T15:56:39.655Z,15.10
2022-10-09T15:59:06.525Z,15.00
2022-10-09T16:01:33.200Z,15.00
2022-10-09T16:03:59.983Z,15.00
2022-10-09T16:06:26.968Z,15.00
2022-10-09T16:08:58.104Z,15.00
2022-10-09T16:11:26.732Z,15.00
2022-10-09T16:13:55.766Z,14.90
2022-10-09T16:16:27.225Z,14.80
2022-10-09T16:18:54.201Z,14.70
2022-10-09T16:21:23.480Z,14.60
2022-10-09T16:23:53.301Z,14.50
2022-10-09T16:26:22.946Z,14.50
2022-10-09T16:28:51.653Z,14.30
2022-10-09T16:31:28.016Z,14.20
2022-10-09T16:33:54.913Z,14.10
2022-10-09T16:36:21.804Z,14.00
2022-10-09T16:38:48.638Z,13.90
2022-10-09T16:41:18.077Z,13.90
2022-10-09T16:43:47.147Z,13.70
2022-10-09T16:46:23.975Z,13.70
2022-10-09T16:48:52.554Z,13.60
2022-10-09T16:51:28.402Z,13.50
2022-10-09T16:53:57.589Z,13.40
2022-10-09T16:56:27.368Z,13.40
2022-10-09T16:58:59.172Z,13.20
2022-10-09T17:01:27.679Z,13.20
2022-10-09T17:03:56.447Z,13.10
2022-10-09T17:06:23.876Z,13.00
2022-10-09T17:08:52.271Z,12.90
2022-10-09T17:11:19.649Z,12.90
2022-10-09T17:13:46.825Z,12.80
2022-10-09T17:16:19.008Z,12.70
2022-10-09T17:18:47.248Z,12.60
2022-10-09T17:21:15.634Z,12.50
2022-10-09T17:23:42.513Z,12.40
2022-10-09T17:26:12.281Z,12.30
2022-10-09T17:28:40.396Z,12.20
2022-10-09T17:31:11.675Z,12.20
2022-10-09T17:33:41.093Z,12.10
2022-10-09T17:36:08.788Z,12.00
2022-10-09T17:38:35.784Z,11.90
2022-10-09T17:41:07.313Z,11.80
2022-10-09T17:43:34.092Z,11.70
2022-10-09T17:46:01.472Z,11.60
2022-10-09T17:48:29.052Z,11.40
2022-10-09T17:50:57.867Z,11.30
2022-10-09T17:53:25.537Z,11.20
2022-10-09T17:55:54.595Z,11.00
2022-10-09T17:58:23.403Z,10.90
2022-10-09T18:00:50.602Z,10.70
2022-10-09T18:03:17.968Z,10.60
2022-10-09T18:05:46.904Z,10.50
2022-10-09T18:08:15.227Z,10.40
2022-10-09T18:10:42.085Z,10.30
2022-10-09T18:13:10.960Z,10.20
2022-10-09T18:15:42.892Z,10.10
2022-10-09T18:18:11.216Z,10.00
2022-10-09T18:20:39.113Z,9.90
2022-10-09T18:23:07.258Z,9.80
2022-10-09T18:25:35.051Z,9.70
2022-10-09T18:28:01.746Z,9.60
2022-10-09T18:30:28.404Z,9.50
2022-10-09T18:32:55.136Z,9.40
2022-10-09T18:35:21.963Z,9.30
2022-10-09T18:37:48.630Z,9.30
2022-10-09T18:40:15.428Z,9.20
2022-10-09T18:42:42.121Z,9.10
2022-10-09T18:45:12.573Z,9.00
2022-10-09T18:47:40.200Z,8.90
2022-10-09T18:50:10.866Z,8.90
2022-10-09T18:52:40.036Z,8.80
2022-10-09T18:55:08.674Z,8.70
2022-10-09T18:57:35.711Z,8.70
2022-10-09T19:00:02.782Z,8.60
2022-10-09T19:02:29.649Z,8.50
2022-10-09T19:04:57.004Z,8.40
2022-10-09T19:07:24.683Z,8.40
2022-10-09T19:09:56.287Z,8.30
2022-10-09T19:12:24.699Z,8.20
2022-10-09T19:14:51.865Z,8.20
2022-10-09T19:17:18.915Z,8.10
2022-10-09T19:19:46.111Z,8.10
2022-10-09T19:22:16.512Z,8.00
2022-10-09T19:24:45.255Z,8.00
2022-10-09T19:27:12.344Z,7.90
2022-10-09T19:29:39.058Z,7.80
2022-10-09T19:32:05.850Z,7.70
2022-10-09T19:34:32.533Z,7.70
2022-10-09T19:36:59.321Z,7.70
2022-10-09T19:39:26.135Z,7.60
2022-10-09T19:41:52.860Z,7.50
2022-10-09T19:44:19.740Z,7.50
2022-10-09T19:46:46.754Z,7.40
2022-10-09T19:49:13.558Z,7.40
2022-10-09T19:51:40.426Z,7.40
2022-10-09T19:54:09.341Z,7.30
2022-10-09T19:56:37.086Z,7.30
2022-10-09T19:59:07.373Z,7.30
2022-10-09T20:01:35.918Z,7.20
2022-10-09T20:04:05.915Z,7.20
2022-10-09T20:06:32.876Z,7.10
2022-10-09T20:09:00.052Z,7.10
2022-10-09T20:11:27.128Z,7.00
2022-10-09T20:13:56.146Z,7.00
2022-10-09T20:16:24.702Z,7.00
2022-10-09T20:18:51.597Z,6.90
2022-10-09T20:21:19.052Z,6.90
2022-10-09T20:23:45.926Z,6.90
2022-10-09T20:26:18.142Z,6.80
2022-10-09T20:28:46.276Z,6.80
2022-10-09T20:31:18.237Z,6.70
2022-10-09T20:33:46.580Z,6.70
2022-10-09T20:36:24.008Z,6.60
2022-10-09T20:38:51.085Z,6.60
2022-10-09T20:41:18.185Z,6.50
2022-10-09T20:43:45.281Z,6.50
2022-10-09T20:46:14.837Z,6.50
2022-10-09T20:48:43.273Z,6.50
2022-10-09T20:51:10.325Z,6.40
2022-10-09T20:53:37.082Z,6.40
2022-10-09T20:56:07.553Z,6.40
2022-10-09T20:58:34.804Z,6.30
2022-10-09T21:01:06.173Z,6.30
2022-10-09T21:03:33.652Z,6.20
2022-10-09T21:06:06.257Z,6.20
2022-10-09T21:08:33.081Z,6.20
2022-10-09T21:11:00.071Z,6.20
2022-10-09T21:13:27.016Z,6.10
2022-10-09T21:15:53.851Z,6.00
2022-10-09T21:18:20.695Z,6.00
2022-10-09T21:20:48.291Z,6.00
2022-10-09T21:23:17.394Z,6.00
2022-10-09T21:25:52.530Z,5.90
2022-10-09T21:28:21.236Z,5.90
2022-10-09T21:30:48.303Z,5.80
2022-10-09T21:33:15.721Z,5.80
2022-10-09T21:35:44.844Z,5.80
2022-10-09T21:38:17.052Z,5.80
2022-10-09T21:40:44.172Z,5.80
2022-10-09T21:43:11.353Z,5.70
2022-10-09T21:45:39.089Z,5.70
2022-10-09T21:48:06.867Z,5.70
2022-10-09T21:50:36.383Z,5.70
2022-10-09T21:53:04.115Z,5.60
2022-10-09T21:55:31.370Z,5.60
2022-10-09T21:57:58.032Z,5.60
2022-10-09T22:00:24.714Z,5.60
2022-10-09T22:02:51.756Z,5.60
2022-10-09T22:05:18.776Z,5.50
2022-10-09T22:07:45.469Z,5.50
2022-10-09T22:10:12.447Z,5.40
2022-10-09T22:12:39.307Z,5.40
2022-10-09T22:15:06.496Z,5.40
2022-10-09T22:17:33.242Z,5.40
2022-10-09T22:19:59.887Z,5.30
2022-10-09T22:22:26.689Z,5.30
2022-10-09T22:24:53.504Z,5.30
2022-10-09T22:27:20.464Z,5.20
2022-10-09T22:29:47.290Z,5.20
2022-10-09T22:32:14.010Z,5.20
2022-10-09T22:34:40.672Z,5.20
2022-10-09T22:37:07.372Z,5.10
2022-10-09T22:39:34.079Z,5.10
2022-10-09T22:42:00.768Z,5.10
2022-10-09T22:44:27.511Z,5.10
2022-10-09T22:46:54.321Z,5.10
2022-10-09T22:49:20.974Z,5.00
2022-10-09T22:51:47.684Z,5.00
2022-10-09T22:54:14.363Z,5.00
2022-10-09T22:56:43.503Z,5.00
2022-10-09T22:59:13.300Z,4.90
2022-10-09T23:01:48.279Z,4.90
2022-10-09T23:04:17.099Z,4.90
2022-10-09T23:06:44.940Z,4.80
2022-10-09T23:09:14.184Z,4.80
2022-10-09T23:11:41.827Z,4.80
2022-10-09T23:14:10.224Z,4.80
2022-10-09T23:16:37.181Z,4.80
2022-10-09T23:19:06.973Z,4.80
2022-10-09T23:21:35.465Z,4.80
2022-10-09T23:24:02.743Z,4.70
2022-10-09T23:26:31.872Z,4.70
2022-10-09T23:29:02.354Z,4.70
2022-10-09T23:31:29.356Z,4.60
2022-10-09T23:33:56.896Z,4.60
2022-10-09T23:36:25.429Z,4.60
2022-10-09T23:38:52.684Z,4.60
2022-10-09T23:41:21.647Z,4.60
2022-10-09T23:43:48.927Z,4.50
2022-10-09T23:46:18.886Z,4.50
2022-10-09T23:48:46.384Z,4.50
2022-10-09T23:51:14.149Z,4.50
2022-10-09T23:53:41.807Z,4.40
2022-10-09T23:56:27.424Z,4.40
2022-10-09T23:58:55.198Z,4.30
